createdAt,value
2023-04-22T00:02:27.711Z,7.35
2023-04-22T00:04:54.874Z,7.36
2023-04-22T00:07:22.419Z,7.40
2023-04-22T00:09:49.902Z,7.43
2023-04-22T00:12:16.804Z,7.47
2023-04-22T00:14:44.057Z,7.45
2023-04-22T00:17:11.282Z,7.46
2023-04-22T00:19:38.755Z,7.46
2023-04-22T00:22:06.018Z,7.49
2023-04-22T00:24:33.100Z,7.49
2023-04-22T00:27:00.165Z,7.52
2023-04-22T00:29:27.276Z,7.52
2023-04-22T00:31:54.317Z,7.53
2023-04-22T00:34:21.384Z,7.54
2023-04-22T00:36:48.773Z,7.56
2023-04-22T00:39:16.041Z,7.59
2023-04-22T00:41:43.771Z,7.62
2023-04-22T00:44:11.850Z,7.61
2023-04-22T00:46:40.113Z,7.67
2023-04-22T00:49:08.548Z,7.70
2023-04-22T00:51:35.815Z,7.74
2023-04-22T00:54:03.838Z,7.82
2023-04-22T00:56:34.206Z,7.82
2023-04-22T00:59:01.134Z,7.87
2023-04-22T01:01:29.403Z,7.88
2023-04-22T01:03:57.485Z,7.92
2023-04-22T01:06:24.912Z,7.95
2023-04-22T01:08:52.221Z,7.95
2023-04-22T01:11:19.279Z,7.98
2023-04-22T01:13:46.691Z,7.99
2023-04-22T01:16:13.962Z,7.99
2023-04-22T01:18:40.942Z,7.99
2023-04-22T01:21:08.301Z,8.00
2023-04-22T01:23:35.271Z,7.96
2023-04-22T01:26:02.384Z,7.95
2023-04-22T01:28:29.972Z,7.91
2023-04-22T01:30:57.053Z,7.90
2023-04-22T01:33:24.417Z,7.87
2023-04-22T01:35:51.489Z,7.85
2023-04-22T01:38:18.513Z,7.85
2023-04-22T01:40:45.397Z,7.86
2023-04-22T01:43:12.352Z,7.88
2023-04-22T01:45:39.267Z,7.92
2023-04-22T01:48:09.415Z,7.95
2023-04-22T01:50:36.376Z,7.94
2023-04-22T01:53:04.173Z,7.98
2023-04-22T01:55:31.592Z,7.96
2023-04-22T01:57:58.543Z,8.00
2023-04-22T02:00:25.575Z,7.98
2023-04-22T02:02:52.532Z,8.00
2023-04-22T02:05:19.646Z,7.99
2023-04-22T02:07:46.703Z,8.02
2023-04-22T02:10:13.672Z,8.02
2023-04-22T02:12:40.632Z,8.04
2023-04-22T02:15:08.388Z,8.04
2023-04-22T02:17:36.102Z,8.04
2023-04-22T02:20:05.322Z,8.04
2023-04-22T02:22:33.473Z,8.06
2023-04-22T02:25:02.020Z,8.06
2023-04-22T02:27:28.995Z,8.08
2023-04-22T02:29:55.999Z,8.06
2023-04-22T02:32:23.159Z,8.06
2023-04-22T02:34:50.058Z,8.07
2023-04-22T02:37:17.384Z,8.09
2023-04-22T02:39:44.254Z,8.09
2023-04-22T02:42:11.295Z,8.09
2023-04-22T02:44:38.177Z,8.08
2023-04-22T02:47:07.308Z,8.08
2023-04-22T02:49:34.230Z,8.08
2023-04-22T02:52:01.099Z,8.06
2023-04-22T02:54:28.048Z,8.08
2023-04-22T02:56:55.333Z,8.06
2023-04-22T02:59:22.724Z,8.05
2023-04-22T03:01:49.980Z,8.04
2023-04-22T03:04:17.010Z,8.05
2023-04-22T03:06:44.010Z,8.05
2023-04-22T03:09:11.296Z,8.05
2023-04-22T03:11:38.177Z,8.04
2023-04-22T03:14:05.040Z,8.06
2023-04-22T03:16:33.685Z,8.06
2023-04-22T03:19:00.672Z,8.09
2023-04-22T03:21:28.751Z,8.08
2023-04-22T03:23:55.689Z,8.09
2023-04-22T03:26:22.602Z,8.07
2023-04-22T03:28:49.535Z,8.05
2023-04-22T03:31:16.612Z,8.01
2023-04-22T03:33:43.826Z,8.05
2023-04-22T03:36:10.718Z,8.04
2023-04-22T03:38:37.576Z,8.04
2023-04-22T03:41:04.518Z,8.00
2023-04-22T03:43:31.433Z,7.99
2023-04-22T03:46:00.265Z,7.96
2023-04-22T03:48:29.280Z,7.94
2023-04-22T03:50:56.313Z,7.93
2023-04-22T03:53:23.440Z,7.94
2023-04-22T03:55:50.593Z,7.94
2023-04-22T03:58:17.509Z,7.91
2023-04-22T04:00:44.618Z,7.87
2023-04-22T04:03:12.115Z,7.81
2023-04-22T04:05:39.311Z,7.73
2023-04-22T04:08:06.900Z,7.63
2023-04-22T04:10:34.067Z,7.57
2023-04-22T04:13:00.936Z,7.46
2023-04-22T04:15:28.056Z,7.38
2023-04-22T04:17:56.974Z,7.29
2023-04-22T04:20:24.274Z,7.20
2023-04-22T04:22:51.162Z,7.15
2023-04-22T04:25:18.752Z,7.11
2023-04-22T04:27:45.801Z,7.06
2023-04-22T04:30:13.288Z,7.05
2023-04-22T04:32:40.766Z,7.08
2023-04-22T04:35:08.373Z,7.06
2023-04-22T04:37:35.257Z,7.09
2023-04-22T04:40:02.563Z,7.11
2023-04-22T04:42:30.737Z,7.12
2023-04-22T04:44:58.629Z,7.13
2023-04-22T04:47:25.980Z,7.20
2023-04-22T04:49:54.620Z,7.20
2023-04-22T04:52:21.473Z,7.19
2023-04-22T04:54:48.507Z,7.25
2023-04-22T04:57:15.362Z,7.28
2023-04-22T04:59:42.364Z,7.27
2023-04-22T05:02:09.528Z,7.31
2023-04-22T05:04:36.759Z,7.33
2023-04-22T05:07:04.401Z,7.36
2023-04-22T05:09:37.525Z,7.37
2023-04-22T05:12:05.252Z,7.37
2023-04-22T05:14:32.655Z,7.38
2023-04-22T05:16:59.918Z,7.40
2023-04-22T05:19:26.935Z,7.36
2023-04-22T05:21:53.774Z,7.35
2023-04-22T05:24:21.635Z,7.32
2023-04-22T05:26:48.875Z,7.29
2023-04-22T05:29:15.910Z,7.25
2023-04-22T05:31:43.055Z,7.20
2023-04-22T05:34:10.046Z,7.20
2023-04-22T05:36:36.942Z,7.11
2023-04-22T05:39:04.422Z,7.07
2023-04-22T05:41:31.263Z,7.08
2023-04-22T05:43:58.240Z,7.10
2023-04-22T05:46:25.350Z,7.21
2023-04-22T05:48:52.411Z,7.36
2023-04-22T05:51:19.685Z,7.53
2023-04-22T05:53:46.684Z,7.71
2023-04-22T05:56:13.655Z,7.85
2023-04-22T05:58:40.512Z,7.98
2023-04-22T06:01:07.416Z,8.05
2023-04-22T06:03:34.578Z,8.09
2023-04-22T06:06:01.792Z,8.16
2023-04-22T06:08:31.993Z,8.17
2023-04-22T06:10:58.946Z,8.15
2023-04-22T06:13:25.894Z,8.16
2023-04-22T06:15:52.877Z,8.31
2023-04-22T06:18:19.871Z,8.43
2023-04-22T06:20:46.944Z,8.62
2023-04-22T06:23:13.939Z,8.83
2023-04-22T06:25:40.832Z,9.08
2023-04-22T06:28:08.032Z,9.28
2023-04-22T06:30:34.998Z,9.34
2023-04-22T06:33:02.114Z,9.45
2023-04-22T06:35:29.074Z,9.59
2023-04-22T06:37:56.031Z,9.80
2023-04-22T06:40:23.099Z,9.92
2023-04-22T06:42:49.980Z,10.04
2023-04-22T06:45:17.084Z,10.16
2023-04-22T06:47:44.379Z,10.14
2023-04-22T06:50:11.743Z,10.20
2023-04-22T06:52:38.855Z,10.34
2023-04-22T06:55:06.646Z,10.50
2023-04-22T06:57:33.594Z,10.64
2023-04-22T07:00:00.708Z,10.72
2023-04-22T07:02:27.815Z,10.84
2023-04-22T07:04:54.910Z,10.88
2023-04-22T07:07:21.861Z,10.98
2023-04-22T07:09:48.793Z,11.12
2023-04-22T07:12:16.325Z,11.23
2023-04-22T07:14:45.052Z,11.32
2023-04-22T07:17:12.946Z,11.45
2023-04-22T07:19:40.097Z,11.57
2023-04-22T07:22:07.324Z,11.60
2023-04-22T07:24:34.416Z,11.64
2023-04-22T07:27:02.908Z,11.58
2023-04-22T07:29:29.856Z,11.45
2023-04-22T07:31:56.795Z,11.37
2023-04-22T07:34:24.251Z,11.29
2023-04-22T07:36:54.452Z,11.24
2023-04-22T07:39:22.746Z,11.31
2023-04-22T07:41:49.772Z,11.51
2023-04-22T07:44:21.659Z,11.62
2023-04-22T07:46:50.425Z,11.79
2023-04-22T07:49:17.562Z,11.98
2023-04-22T07:51:45.626Z,12.06
2023-04-22T07:54:12.619Z,12.13
2023-04-22T07:56:39.545Z,12.14
2023-04-22T07:59:06.660Z,12.11
2023-04-22T08:01:33.515Z,12.05
2023-04-22T08:04:00.945Z,12.12
2023-04-22T08:06:28.353Z,12.26
2023-04-22T08:08:55.389Z,12.30
2023-04-22T08:11:22.349Z,12.34
2023-04-22T08:13:49.469Z,12.44
2023-04-22T08:16:17.159Z,12.51
2023-04-22T08:18:44.034Z,12.61
2023-04-22T08:21:11.246Z,12.82
2023-04-22T08:23:38.728Z,12.92
2023-04-22T08:26:05.757Z,12.90
2023-04-22T08:28:32.840Z,12.85
2023-04-22T08:30:59.741Z,12.73
2023-04-22T08:33:27.393Z,12.62
2023-04-22T08:35:54.458Z,12.45
2023-04-22T08:38:21.343Z,12.37
2023-04-22T08:40:48.328Z,12.26
2023-04-22T08:43:15.427Z,12.02
2023-04-22T08:45:42.687Z,12.02
2023-04-22T08:48:10.202Z,11.98
2023-04-22T08:50:40.081Z,11.72
2023-04-22T08:53:07.185Z,11.66
2023-04-22T08:55:36.580Z,11.71
2023-04-22T08:58:06.371Z,11.58
2023-04-22T09:00:34.873Z,11.43
2023-04-22T09:03:06.460Z,11.26
2023-04-22T09:05:34.620Z,11.23
2023-04-22T09:08:03.290Z,11.05
2023-04-22T09:10:33.523Z,11.09
2023-04-22T09:13:04.403Z,11.15
2023-04-22T09:15:31.409Z,11.28
2023-04-22T09:17:58.925Z,11.43
2023-04-22T09:20:28.619Z,11.66
2023-04-22T09:22:57.761Z,11.79
2023-04-22T09:25:27.819Z,11.83
2023-04-22T09:27:59.629Z,11.77
2023-04-22T09:30:34.978Z,11.68
2023-04-22T09:33:05.316Z,11.71
2023-04-22T09:35:40.776Z,11.95
2023-04-22T09:38:11.803Z,12.01
2023-04-22T09:40:43.510Z,12.08
2023-04-22T09:43:11.891Z,11.85
2023-04-22T09:45:42.410Z,12.25
2023-04-22T09:48:12.166Z,12.42
2023-04-22T09:50:42.217Z,12.50
2023-04-22T09:53:12.732Z,12.66
2023-04-22T09:55:53.837Z,12.73
2023-04-22T09:58:27.569Z,12.71
2023-04-22T10:00:58.084Z,12.94
2023-04-22T10:03:25.396Z,13.03
2023-04-22T10:05:52.727Z,13.24
2023-04-22T10:08:19.813Z,13.42
2023-04-22T10:10:47.040Z,13.43
2023-04-22T10:13:14.322Z,13.52
2023-04-22T10:15:43.381Z,13.56
2023-04-22T10:18:19.398Z,13.60
2023-04-22T10:20:47.884Z,13.73
2023-04-22T10:23:23.786Z,13.82
2023-04-22T10:25:56.042Z,13.98
2023-04-22T10:28:26.002Z,14.02
2023-04-22T10:30:53.772Z,14.15
2023-04-22T10:33:31.772Z,14.23
2023-04-22T10:36:20.365Z,14.22
2023-04-22T10:38:50.312Z,14.21
2023-04-22T10:41:23.635Z,14.10
2023-04-22T10:44:06.663Z,14.16
2023-04-22T10:46:44.487Z,14.18
2023-04-22T10:49:13.507Z,14.12
2023-04-22T10:51:54.785Z,14.11
2023-04-22T10:54:31.066Z,14.20
2023-04-22T10:57:12.913Z,14.28
2023-04-22T10:59:52.773Z,14.43
2023-04-22T11:02:21.407Z,14.36
2023-04-22T11:04:49.490Z,14.27
2023-04-22T11:07:20.922Z,14.39
2023-04-22T11:09:53.065Z,14.27
2023-04-22T11:12:44.125Z,14.34
2023-04-22T11:15:14.108Z,14.28
2023-04-22T11:17:47.901Z,14.32
2023-04-22T11:20:19.224Z,14.42
2023-04-22T11:22:48.816Z,14.44
2023-04-22T11:25:16.299Z,14.36
2023-04-22T11:27:44.591Z,14.27
2023-04-22T11:30:17.763Z,14.35
2023-04-22T11:33:00.109Z,14.33
2023-04-22T11:35:33.424Z,14.16
2023-04-22T11:38:04.471Z,14.24
2023-04-22T11:40:35.801Z,14.35
2023-04-22T11:43:07.439Z,14.48
2023-04-22T11:45:37.033Z,14.56
2023-04-22T11:48:07.187Z,14.65
2023-04-22T11:50:40.763Z,14.66
2023-04-22T11:53:21.402Z,14.70
2023-04-22T11:55:51.616Z,14.61
2023-04-22T11:58:25.102Z,14.59
2023-04-22T12:00:54.463Z,14.40
2023-04-22T12:03:27.629Z,14.57
2023-04-22T12:06:04.735Z,14.55
2023-04-22T12:08:35.749Z,14.69
2023-04-22T12:11:08.191Z,14.67
2023-04-22T12:13:46.589Z,14.77
2023-04-22T12:16:19.157Z,14.84
2023-04-22T12:18:56.665Z,14.80
2023-04-22T12:21:26.277Z,14.91
2023-04-22T12:24:06.251Z,14.82
2023-04-22T12:26:33.170Z,14.97
2023-04-22T12:29:01.460Z,14.96
2023-04-22T12:31:28.910Z,14.87
2023-04-22T12:33:56.322Z,14.93
2023-04-22T12:36:23.883Z,14.88
2023-04-22T12:38:51.556Z,14.82
2023-04-22T12:41:18.868Z,14.72
2023-04-22T12:43:46.233Z,14.53
2023-04-22T12:46:13.363Z,14.53
2023-04-22T12:48:40.284Z,14.43
2023-04-22T12:51:07.425Z,14.42
2023-04-22T12:53:35.117Z,14.41
2023-04-22T12:56:02.522Z,14.42
2023-04-22T12:58:29.459Z,14.33
2023-04-22T13:00:56.492Z,14.48
2023-04-22T13:03:23.728Z,14.56
2023-04-22T13:05:51.202Z,14.65
2023-04-22T13:08:18.716Z,14.83
2023-04-22T13:10:45.762Z,14.93
2023-04-22T13:15:42.434Z,15.20
2023-04-22T13:18:09.504Z,15.02
2023-04-22T13:20:36.980Z,15.25
2023-04-22T13:23:05.031Z,15.45
2023-04-22T13:25:32.296Z,15.54
2023-04-22T13:27:59.185Z,15.56
2023-04-22T13:30:26.572Z,15.59
2023-04-22T13:32:53.603Z,15.54
2023-04-22T13:35:20.984Z,15.55
2023-04-22T13:37:47.847Z,15.62
2023-04-22T13:40:15.049Z,15.68
2023-04-22T13:42:43.079Z,15.74
2023-04-22T13:45:10.431Z,15.88
2023-04-22T13:47:37.352Z,15.89
2023-04-22T13:50:06.247Z,15.91
2023-04-22T13:52:34.283Z,15.94
2023-04-22T13:55:03.350Z,15.85
2023-04-22T13:57:30.838Z,15.97
2023-04-22T13:59:57.863Z,15.93
2023-04-22T14:02:25.160Z,16.03
2023-04-22T14:04:52.415Z,16.00
2023-04-22T14:07:21.770Z,15.89
2023-04-22T14:09:48.762Z,15.94
2023-04-22T14:12:15.895Z,15.88
2023-04-22T14:14:42.832Z,15.92
2023-04-22T14:17:09.863Z,15.93
2023-04-22T14:19:39.669Z,15.97
2023-04-22T14:22:10.953Z,15.96
2023-04-22T14:24:37.887Z,15.95
2023-04-22T14:27:05.420Z,16.00
2023-04-22T14:29:32.523Z,15.90
2023-04-22T14:31:59.712Z,15.92
2023-04-22T14:34:27.560Z,15.96
2023-04-22T14:36:54.640Z,15.89
2023-04-22T14:39:21.778Z,15.88
2023-04-22T14:41:49.114Z,15.92
2023-04-22T14:44:16.332Z,16.00
2023-04-22T14:46:43.305Z,16.00
2023-04-22T14:49:10.207Z,16.02
2023-04-22T14:51:37.401Z,15.96
2023-04-22T14:54:04.710Z,16.09
2023-04-22T14:56:31.679Z,16.17
2023-04-22T14:58:58.784Z,16.15
2023-04-22T15:01:25.982Z,16.05
2023-04-22T15:03:53.044Z,16.07
2023-04-22T15:06:20.602Z,15.97
2023-04-22T15:08:47.590Z,16.02
2023-04-22T15:11:14.727Z,16.00
2023-04-22T15:13:41.674Z,16.08
2023-04-22T15:16:08.677Z,16.11
2023-04-22T15:18:36.279Z,16.14
2023-04-22T15:21:05.976Z,16.10
2023-04-22T15:23:32.847Z,16.06
2023-04-22T15:25:59.770Z,16.08
2023-04-22T15:28:26.789Z,16.03
2023-04-22T15:30:53.915Z,15.86
2023-04-22T15:33:20.860Z,16.06
2023-04-22T15:35:50.253Z,16.02
2023-04-22T15:38:17.946Z,15.98
2023-04-22T15:40:45.408Z,15.91
2023-04-22T15:43:12.371Z,15.86
2023-04-22T15:45:39.278Z,15.81
2023-04-22T15:48:06.432Z,15.74
2023-04-22T15:50:33.422Z,15.74
2023-04-22T15:53:00.473Z,15.69
2023-04-22T15:55:27.360Z,15.59
2023-04-22T15:57:54.428Z,15.53
2023-04-22T16:00:21.476Z,15.46
2023-04-22T16:02:55.706Z,15.20
2023-04-22T16:05:25.216Z,15.37
2023-04-22T16:07:56.096Z,15.35
2023-04-22T16:10:23.487Z,15.38
2023-04-22T16:12:51.106Z,15.32
2023-04-22T16:15:18.240Z,15.37
2023-04-22T16:17:45.353Z,15.41
2023-04-22T16:20:12.503Z,15.27
2023-04-22T16:22:39.455Z,15.31
2023-04-22T16:25:07.460Z,15.30
2023-04-22T16:27:34.694Z,15.22
2023-04-22T16:30:02.152Z,15.27
2023-04-22T16:32:29.050Z,15.25
2023-04-22T16:34:56.266Z,15.18
2023-04-22T16:37:23.180Z,15.10
2023-04-22T16:39:50.438Z,15.01
2023-04-22T16:42:17.598Z,15.00
2023-04-22T16:44:44.607Z,14.86
2023-04-22T16:47:11.661Z,14.79
2023-04-22T16:49:39.131Z,14.90
2023-04-22T16:52:06.385Z,14.91
2023-04-22T16:54:34.071Z,14.88
2023-04-22T16:57:01.709Z,14.88
2023-04-22T16:59:29.956Z,14.77
2023-04-22T17:01:57.513Z,14.80
2023-04-22T17:04:24.523Z,14.77
2023-04-22T17:06:51.734Z,14.73
2023-04-22T17:09:18.738Z,14.75
2023-04-22T17:11:45.801Z,14.75
2023-04-22T17:14:12.688Z,14.76
2023-04-22T17:16:39.586Z,14.80
2023-04-22T17:19:06.857Z,14.82
2023-04-22T17:21:36.923Z,14.88
2023-04-22T17:24:05.967Z,14.82
2023-04-22T17:26:33.704Z,14.78
2023-04-22T17:29:00.707Z,14.80
2023-04-22T17:31:27.786Z,14.77
2023-04-22T17:33:55.083Z,14.77
2023-04-22T17:36:21.973Z,14.70
2023-04-22T17:38:48.849Z,14.64
2023-04-22T17:41:15.834Z,14.62
2023-04-22T17:43:42.728Z,14.55
2023-04-22T17:46:09.596Z,14.45
2023-04-22T17:48:37.186Z,14.48
2023-04-22T17:51:07.762Z,14.43
2023-04-22T17:53:34.740Z,14.34
2023-04-22T17:56:04.894Z,14.34
2023-04-22T17:58:32.013Z,14.28
2023-04-22T18:00:58.918Z,14.20
2023-04-22T18:03:26.504Z,14.19
2023-04-22T18:05:53.489Z,14.11
2023-04-22T18:08:20.556Z,14.09
2023-04-22T18:10:47.466Z,13.98
2023-04-22T18:13:14.449Z,13.96
2023-04-22T18:15:41.467Z,13.89
2023-04-22T18:18:08.354Z,13.89
2023-04-22T18:20:35.404Z,13.82
2023-04-22T18:23:02.376Z,13.74
2023-04-22T18:25:29.350Z,13.69
2023-04-22T18:27:56.297Z,13.64
2023-04-22T18:30:24.601Z,13.63
2023-04-22T18:32:52.240Z,13.57
2023-04-22T18:35:20.384Z,13.59
2023-04-22T18:37:47.641Z,13.52
2023-04-22T18:40:14.675Z,13.45
2023-04-22T18:42:45.020Z,13.48
2023-04-22T18:45:12.660Z,13.45
2023-04-22T18:47:39.816Z,13.43
2023-04-22T18:50:07.928Z,13.39
2023-04-22T18:52:34.994Z,13.37
2023-04-22T18:55:02.273Z,13.35
2023-04-22T18:57:29.579Z,13.34
2023-04-22T18:59:56.522Z,13.30
2023-04-22T19:02:23.879Z,13.27
2023-04-22T19:04:51.878Z,13.17
2023-04-22T19:07:18.830Z,13.14
2023-04-22T19:09:45.750Z,13.09
2023-04-22T19:12:15.007Z,12.96
2023-04-22T19:14:42.606Z,12.91
2023-04-22T19:17:09.950Z,12.79
2023-04-22T19:19:36.949Z,12.74
2023-04-22T19:22:03.855Z,12.59
2023-04-22T19:24:33.497Z,12.52
2023-04-22T19:27:07.179Z,12.52
2023-04-22T19:29:34.568Z,12.47
2023-04-22T19:32:02.085Z,12.36
2023-04-22T19:34:29.153Z,12.32
2023-04-22T19:36:56.261Z,12.28
2023-04-22T19:39:23.398Z,12.22
2023-04-22T19:41:51.574Z,12.16
2023-04-22T19:44:18.679Z,12.12
2023-04-22T19:46:45.616Z,12.04
2023-04-22T19:49:13.140Z,11.98
2023-04-22T19:51:41.245Z,11.99
2023-04-22T19:54:10.999Z,11.94
2023-04-22T19:56:38.688Z,11.89
2023-04-22T19:59:07.035Z,11.90
2023-04-22T20:01:35.152Z,11.88
2023-04-22T20:04:04.270Z,11.83
2023-04-22T20:06:33.937Z,11.78
2023-04-22T20:09:01.856Z,11.77
2023-04-22T20:11:29.725Z,11.75
2023-04-22T20:13:57.008Z,11.74
2023-04-22T20:16:25.623Z,11.68
2023-04-22T20:18:52.908Z,11.70
2023-04-22T20:21:20.330Z,11.66
2023-04-22T20:23:48.201Z,11.64
2023-04-22T20:26:20.173Z,11.58
2023-04-22T20:28:54.658Z,11.56
2023-04-22T20:31:23.780Z,11.54
2023-04-22T20:33:51.867Z,11.44
2023-04-22T20:36:20.506Z,11.35
2023-04-22T20:38:51.152Z,11.32
2023-04-22T20:41:19.038Z,11.31
2023-04-22T20:43:46.721Z,11.25
2023-04-22T20:46:13.719Z,11.24
2023-04-22T20:48:41.378Z,11.19
2023-04-22T20:51:08.639Z,11.17
2023-04-22T20:53:35.730Z,11.21
2023-04-22T20:56:03.379Z,11.19
2023-04-22T20:58:30.412Z,11.23
2023-04-22T21:00:57.802Z,11.18
2023-04-22T21:03:27.570Z,11.17
2023-04-22T21:05:55.420Z,11.11
2023-04-22T21:08:25.630Z,11.11
2023-04-22T21:10:55.892Z,11.07
2023-04-22T21:13:23.858Z,11.17
2023-04-22T21:15:59.329Z,11.09
2023-04-22T21:18:29.166Z,11.13
2023-04-22T21:20:57.685Z,11.11
2023-04-22T21:23:25.690Z,11.06
2023-04-22T21:25:56.073Z,11.04
2023-04-22T21:28:23.603Z,11.02
2023-04-22T21:30:51.203Z,11.02
2023-04-22T21:33:18.125Z,10.99
2023-04-22T21:35:45.076Z,10.98
2023-04-22T21:38:12.224Z,10.91
2023-04-22T21:40:39.504Z,10.94
2023-04-22T21:43:06.356Z,10.89
2023-04-22T21:45:33.386Z,10.85
2023-04-22T21:48:00.603Z,10.82
2023-04-22T21:50:30.356Z,10.82
2023-04-22T21:52:59.067Z,10.80
2023-04-22T21:55:26.071Z,10.79
2023-04-22T21:57:53.000Z,10.81
2023-04-22T22:00:19.887Z,10.76
2023-04-22T22:02:48.908Z,10.75
2023-04-22T22:05:16.462Z,10.70
2023-04-22T22:07:45.227Z,10.68
2023-04-22T22:10:19.396Z,10.70
2023-04-22T22:12:47.655Z,10.70
2023-04-22T22:15:16.614Z,10.64
2023-04-22T22:17:45.081Z,10.64
2023-04-22T22:20:17.090Z,10.61
2023-04-22T22:22:44.856Z,10.60
2023-04-22T22:25:16.211Z,10.61
2023-04-22T22:27:49.458Z,10.60
2023-04-22T22:30:18.910Z,10.59
2023-04-22T22:32:46.121Z,10.59
2023-04-22T22:35:13.503Z,10.54
2023-04-22T22:37:41.272Z,10.48
2023-04-22T22:40:09.202Z,10.49
2023-04-22T22:42:36.426Z,10.47
2023-04-22T22:45:05.333Z,10.45
2023-04-22T22:47:32.645Z,10.40
2023-04-22T22:49:59.673Z,10.37
2023-04-22T22:52:26.696Z,10.30
2023-04-22T22:54:53.698Z,10.26
2023-04-22T22:57:21.141Z,10.26
2023-04-22T22:59:47.998Z,10.21
2023-04-22T23:02:15.149Z,10.23
2023-04-22T23:04:42.744Z,10.16
2023-04-22T23:07:09.960Z,10.17
2023-04-22T23:09:37.041Z,10.12
2023-04-22T23:12:04.169Z,10.10
2023-04-22T23:14:31.110Z,10.04
2023-04-22T23:16:58.359Z,9.98
2023-04-22T23:19:26.234Z,9.96
2023-04-22T23:21:55.844Z,9.97
2023-04-22T23:24:23.465Z,9.98
2023-04-22T23:26:51.334Z,9.99
2023-04-22T23:29:19.749Z,9.92
2023-04-22T23:31:47.408Z,9.88
2023-04-22T23:34:17.014Z,9.91
2023-04-22T23:36:45.639Z,9.90
2023-04-22T23:39:12.923Z,9.89
2023-04-22T23:41:39.808Z,9.88
2023-04-22T23:44:06.842Z,9.87
2023-04-22T23:46:34.122Z,9.82
2023-04-22T23:49:01.738Z,9.83
2023-04-22T23:51:30.321Z,9.81
2023-04-22T23:53:57.216Z,9.80
2023-04-22T23:56:24.524Z,9.78
2023-04-22T23:58:52.117Z,9.80
